sensor_id;sensor_type;location;lat;lon;timestamp;P1;durP1;ratioP1;P2;durP2;ratioP2
54384;SDS011;40284;52.878;5.998;2022-12-29T00:01:46;7.47;;;6.30;;
54384;SDS011;40284;52.878;5.998;2022-12-29T00:04:13;8.25;;;6.55;;
54384;SDS011;40284;52.878;5.998;2022-12-29T00:06:39;7.75;;;6.95;;
54384;SDS011;40284;52.878;5.998;2022-12-29T00:09:05;7.57;;;6.78;;
54384;SDS011;40284;52.878;5.998;2022-12-29T00:11:31;9.00;;;6.78;;
54384;SDS011;40284;52.878;5.998;2022-12-29T00:13:57;8.35;;;6.18;;
54384;SDS011;40284;52.878;5.998;2022-12-29T00:16:43;8.70;;;6.70;;
54384;SDS011;40284;52.878;5.998;2022-12-29T00:19:10;7.68;;;6.13;;
54384;SDS011;40284;52.878;5.998;2022-12-29T00:21:57;7.22;;;6.18;;
54384;SDS011;40284;52.878;5.998;2022-12-29T00:24:42;8.10;;;5.80;;
54384;SDS011;40284;52.878;5.998;2022-12-29T00:27:28;5.95;;;5.28;;
54384;SDS011;40284;52.878;5.998;2022-12-29T00:30:14;5.70;;;5.18;;
54384;SDS011;40284;52.878;5.998;2022-12-29T00:32:59;5.70;;;4.68;;
54384;SDS011;40284;52.878;5.998;2022-12-29T00:35:50;5.45;;;4.78;;
54384;SDS011;40284;52.878;5.998;2022-12-29T00:38:18;6.55;;;5.65;;
54384;SDS011;40284;52.878;5.998;2022-12-29T00:41:03;6.05;;;5.38;;
54384;SDS011;40284;52.878;5.998;2022-12-29T00:43:49;8.40;;;6.20;;
54384;SDS011;40284;52.878;5.998;2022-12-29T00:46:30;8.68;;;5.25;;
54384;SDS011;40284;52.878;5.998;2022-12-29T00:48:57;6.88;;;5.50;;
54384;SDS011;40284;52.878;5.998;2022-12-29T00:51:42;5.65;;;5.07;;
54384;SDS011;40284;52.878;5.998;2022-12-29T00:54:08;5.88;;;5.28;;
54384;SDS011;40284;52.878;5.998;2022-12-29T00:56:34;5.95;;;4.43;;
54384;SDS011;40284;52.878;5.998;2022-12-29T00:59:04;6.65;;;4.80;;
54384;SDS011;40284;52.878;5.998;2022-12-29T01:01:30;5.05;;;4.45;;
54384;SDS011;40284;52.878;5.998;2022-12-29T01:03:56;5.88;;;4.22;;
54384;SDS011;40284;52.878;5.998;2022-12-29T01:06:22;5.95;;;4.03;;
54384;SDS011;40284;52.878;5.998;2022-12-29T01:08:48;6.18;;;4.55;;
54384;SDS011;40284;52.878;5.998;2022-12-29T01:11:34;5.82;;;4.53;;
54384;SDS011;40284;52.878;5.998;2022-12-29T01:14:00;7.70;;;4.45;;
54384;SDS011;40284;52.878;5.998;2022-12-29T01:16:26;6.00;;;4.95;;
54384;SDS011;40284;52.878;5.998;2022-12-29T01:18:52;5.65;;;4.40;;
54384;SDS011;40284;52.878;5.998;2022-12-29T01:21:18;5.95;;;4.32;;
54384;SDS011;40284;52.878;5.998;2022-12-29T01:23:44;4.40;;;3.97;;
54384;SDS011;40284;52.878;5.998;2022-12-29T01:26:11;4.50;;;3.65;;
54384;SDS011;40284;52.878;5.998;2022-12-29T01:28:37;6.03;;;4.10;;
54384;SDS011;40284;52.878;5.998;2022-12-29T01:31:05;6.03;;;4.13;;
54384;SDS011;40284;52.878;5.998;2022-12-29T01:33:31;4.70;;;3.92;;
54384;SDS011;40284;52.878;5.998;2022-12-29T01:36:01;5.55;;;3.40;;
54384;SDS011;40284;52.878;5.998;2022-12-29T01:38:27;5.30;;;3.38;;
54384;SDS011;40284;52.878;5.998;2022-12-29T01:40:53;4.97;;;3.05;;
54384;SDS011;40284;52.878;5.998;2022-12-29T01:43:19;5.28;;;3.17;;
54384;SDS011;40284;52.878;5.998;2022-12-29T01:45:50;5.10;;;3.13;;
54384;SDS011;40284;52.878;5.998;2022-12-29T01:48:17;6.22;;;3.20;;
54384;SDS011;40284;52.878;5.998;2022-12-29T01:50:46;3.78;;;2.80;;
54384;SDS011;40284;52.878;5.998;2022-12-29T01:53:17;8.38;;;2.80;;
54384;SDS011;40284;52.878;5.998;2022-12-29T01:55:44;4.22;;;2.45;;
54384;SDS011;40284;52.878;5.998;2022-12-29T01:58:12;4.90;;;2.78;;
54384;SDS011;40284;52.878;5.998;2022-12-29T02:00:38;5.72;;;2.58;;
54384;SDS011;40284;52.878;5.998;2022-12-29T02:03:04;3.47;;;2.67;;
54384;SDS011;40284;52.878;5.998;2022-12-29T02:05:33;5.65;;;2.50;;
54384;SDS011;40284;52.878;5.998;2022-12-29T02:08:02;5.75;;;2.70;;
54384;SDS011;40284;52.878;5.998;2022-12-29T02:10:29;3.95;;;2.22;;
54384;SDS011;40284;52.878;5.998;2022-12-29T02:12:56;4.82;;;2.42;;
54384;SDS011;40284;52.878;5.998;2022-12-29T02:15:24;3.72;;;2.35;;
54384;SDS011;40284;52.878;5.998;2022-12-29T02:17:58;3.95;;;2.00;;
54384;SDS011;40284;52.878;5.998;2022-12-29T02:26:08;3.88;;;1.75;;
54384;SDS011;40284;52.878;5.998;2022-12-29T02:28:51;4.57;;;2.25;;
54384;SDS011;40284;52.878;5.998;2022-12-29T02:36:51;4.63;;;2.05;;
54384;SDS011;40284;52.878;5.998;2022-12-29T02:39:21;5.07;;;2.00;;
54384;SDS011;40284;52.878;5.998;2022-12-29T02:41:54;3.70;;;2.33;;
54384;SDS011;40284;52.878;5.998;2022-12-29T02:49:20;4.28;;;2.60;;
54384;SDS011;40284;52.878;5.998;2022-12-29T02:51:52;4.22;;;2.72;;
54384;SDS011;40284;52.878;5.998;2022-12-29T02:54:20;4.78;;;2.05;;
54384;SDS011;40284;52.878;5.998;2022-12-29T02:57:26;2.85;;;1.52;;
54384;SDS011;40284;52.878;5.998;2022-12-29T02:59:58;3.08;;;1.50;;
54384;SDS011;40284;52.878;5.998;2022-12-29T03:02:37;3.70;;;1.50;;
54384;SDS011;40284;52.878;5.998;2022-12-29T03:05:09;4.93;;;1.98;;
54384;SDS011;40284;52.878;5.998;2022-12-29T03:13:01;3.28;;;1.48;;
54384;SDS011;40284;52.878;5.998;2022-12-29T03:15:57;5.78;;;1.60;;
54384;SDS011;40284;52.878;5.998;2022-12-29T03:21:03;7.47;;;1.55;;
54384;SDS011;40284;52.878;5.998;2022-12-29T03:23:31;6.53;;;1.48;;
54384;SDS011;40284;52.878;5.998;2022-12-29T03:25:58;2.78;;;1.67;;
54384;SDS011;40284;52.878;5.998;2022-12-29T03:28:30;4.70;;;1.75;;
54384;SDS011;40284;52.878;5.998;2022-12-29T03:30:59;5.35;;;1.58;;
54384;SDS011;40284;52.878;5.998;2022-12-29T03:33:27;4.88;;;1.70;;
54384;SDS011;40284;52.878;5.998;2022-12-29T03:35:56;4.50;;;1.60;;
54384;SDS011;40284;52.878;5.998;2022-12-29T03:38:41;4.78;;;1.55;;
54384;SDS011;40284;52.878;5.998;2022-12-29T03:41:09;4.70;;;1.50;;
54384;SDS011;40284;52.878;5.998;2022-12-29T03:43:36;4.97;;;1.70;;
54384;SDS011;40284;52.878;5.998;2022-12-29T03:46:03;5.50;;;1.30;;
54384;SDS011;40284;52.878;5.998;2022-12-29T03:48:29;6.10;;;1.83;;
54384;SDS011;40284;52.878;5.998;2022-12-29T03:50:55;6.45;;;1.65;;
54384;SDS011;40284;52.878;5.998;2022-12-29T03:53:21;6.50;;;1.50;;
54384;SDS011;40284;52.878;5.998;2022-12-29T03:55:47;5.40;;;1.35;;
54384;SDS011;40284;52.878;5.998;2022-12-29T03:58:14;4.32;;;1.40;;
54384;SDS011;40284;52.878;5.998;2022-12-29T04:00:40;6.75;;;1.30;;
54384;SDS011;40284;52.878;5.998;2022-12-29T04:03:06;4.20;;;1.35;;
54384;SDS011;40284;52.878;5.998;2022-12-29T04:05:32;4.07;;;1.15;;
54384;SDS011;40284;52.878;5.998;2022-12-29T04:07:58;8.80;;;1.50;;
54384;SDS011;40284;52.878;5.998;2022-12-29T04:10:25;6.05;;;1.42;;
54384;SDS011;40284;52.878;5.998;2022-12-29T04:12:51;7.30;;;1.35;;
54384;SDS011;40284;52.878;5.998;2022-12-29T04:15:17;7.22;;;1.35;;
54384;SDS011;40284;52.878;5.998;2022-12-29T04:17:43;4.68;;;1.10;;
54384;SDS011;40284;52.878;5.998;2022-12-29T04:20:09;5.93;;;1.42;;
54384;SDS011;40284;52.878;5.998;2022-12-29T04:23:00;6.93;;;2.28;;
54384;SDS011;40284;52.878;5.998;2022-12-29T04:25:27;6.07;;;1.38;;
54384;SDS011;40284;52.878;5.998;2022-12-29T04:27:53;7.00;;;1.48;;
54384;SDS011;40284;52.878;5.998;2022-12-29T04:30:19;6.55;;;1.60;;
54384;SDS011;40284;52.878;5.998;2022-12-29T04:32:45;6.25;;;1.80;;
54384;SDS011;40284;52.878;5.998;2022-12-29T04:35:11;7.93;;;1.83;;
54384;SDS011;40284;52.878;5.998;2022-12-29T04:37:37;5.53;;;1.63;;
54384;SDS011;40284;52.878;5.998;2022-12-29T04:40:04;7.80;;;1.80;;
54384;SDS011;40284;52.878;5.998;2022-12-29T04:42:30;8.40;;;2.83;;
54384;SDS011;40284;52.878;5.998;2022-12-29T04:44:56;6.05;;;1.60;;
54384;SDS011;40284;52.878;5.998;2022-12-29T04:47:22;7.22;;;1.75;;
54384;SDS011;40284;52.878;5.998;2022-12-29T04:49:48;9.25;;;2.15;;
54384;SDS011;40284;52.878;5.998;2022-12-29T04:52:14;8.23;;;3.35;;
54384;SDS011;40284;52.878;5.998;2022-12-29T04:54:40;7.97;;;2.50;;
54384;SDS011;40284;52.878;5.998;2022-12-29T04:57:06;10.25;;;2.10;;
54384;SDS011;40284;52.878;5.998;2022-12-29T04:59:32;10.10;;;1.80;;
54384;SDS011;40284;52.878;5.998;2022-12-29T05:01:59;9.73;;;2.40;;
54384;SDS011;40284;52.878;5.998;2022-12-29T05:04:25;10.85;;;2.55;;
54384;SDS011;40284;52.878;5.998;2022-12-29T05:06:51;7.65;;;2.28;;
54384;SDS011;40284;52.878;5.998;2022-12-29T05:09:17;10.30;;;2.63;;
54384;SDS011;40284;52.878;5.998;2022-12-29T05:11:43;9.50;;;2.38;;
54384;SDS011;40284;52.878;5.998;2022-12-29T05:14:09;13.73;;;2.25;;
54384;SDS011;40284;52.878;5.998;2022-12-29T05:16:35;14.98;;;2.88;;
54384;SDS011;40284;52.878;5.998;2022-12-29T05:19:01;15.05;;;2.38;;
54384;SDS011;40284;52.878;5.998;2022-12-29T05:21:27;10.88;;;2.10;;
54384;SDS011;40284;52.878;5.998;2022-12-29T05:23:53;11.85;;;2.83;;
54384;SDS011;40284;52.878;5.998;2022-12-29T05:26:19;13.15;;;2.55;;
54384;SDS011;40284;52.878;5.998;2022-12-29T05:28:45;14.15;;;2.67;;
54384;SDS011;40284;52.878;5.998;2022-12-29T05:31:11;8.02;;;2.08;;
54384;SDS011;40284;52.878;5.998;2022-12-29T05:33:37;8.85;;;2.92;;
54384;SDS011;40284;52.878;5.998;2022-12-29T05:36:05;17.85;;;3.80;;
54384;SDS011;40284;52.878;5.998;2022-12-29T05:38:31;8.52;;;2.30;;
54384;SDS011;40284;52.878;5.998;2022-12-29T05:40:57;13.77;;;1.95;;
54384;SDS011;40284;52.878;5.998;2022-12-29T05:43:23;10.15;;;2.80;;
54384;SDS011;40284;52.878;5.998;2022-12-29T05:45:49;10.25;;;2.13;;
54384;SDS011;40284;52.878;5.998;2022-12-29T05:48:15;12.40;;;2.00;;
54384;SDS011;40284;52.878;5.998;2022-12-29T05:50:41;9.95;;;2.22;;
54384;SDS011;40284;52.878;5.998;2022-12-29T05:53:07;11.18;;;2.58;;
54384;SDS011;40284;52.878;5.998;2022-12-29T05:55:34;13.20;;;2.35;;
54384;SDS011;40284;52.878;5.998;2022-12-29T05:58:00;12.73;;;2.10;;
54384;SDS011;40284;52.878;5.998;2022-12-29T06:00:26;9.43;;;2.03;;
54384;SDS011;40284;52.878;5.998;2022-12-29T06:02:52;9.82;;;2.67;;
54384;SDS011;40284;52.878;5.998;2022-12-29T06:05:18;12.85;;;2.05;;
54384;SDS011;40284;52.878;5.998;2022-12-29T06:07:44;11.75;;;2.30;;
54384;SDS011;40284;52.878;5.998;2022-12-29T06:10:10;11.15;;;2.63;;
54384;SDS011;40284;52.878;5.998;2022-12-29T06:12:36;11.55;;;2.85;;
54384;SDS011;40284;52.878;5.998;2022-12-29T06:15:02;18.48;;;2.88;;
54384;SDS011;40284;52.878;5.998;2022-12-29T06:17:28;18.10;;;3.40;;
54384;SDS011;40284;52.878;5.998;2022-12-29T06:19:54;17.05;;;3.15;;
54384;SDS011;40284;52.878;5.998;2022-12-29T06:22:20;14.40;;;2.85;;
54384;SDS011;40284;52.878;5.998;2022-12-29T06:24:47;16.95;;;3.03;;
54384;SDS011;40284;52.878;5.998;2022-12-29T06:27:13;12.63;;;2.60;;
54384;SDS011;40284;52.878;5.998;2022-12-29T06:29:39;13.05;;;3.03;;
54384;SDS011;40284;52.878;5.998;2022-12-29T06:32:05;14.88;;;2.88;;
54384;SDS011;40284;52.878;5.998;2022-12-29T06:34:32;20.40;;;3.17;;
54384;SDS011;40284;52.878;5.998;2022-12-29T06:36:58;13.55;;;4.13;;
54384;SDS011;40284;52.878;5.998;2022-12-29T06:39:24;17.55;;;3.75;;
54384;SDS011;40284;52.878;5.998;2022-12-29T06:41:53;15.32;;;2.85;;
54384;SDS011;40284;52.878;5.998;2022-12-29T06:44:22;12.55;;;3.00;;
54384;SDS011;40284;52.878;5.998;2022-12-29T06:46:49;11.07;;;2.70;;
54384;SDS011;40284;52.878;5.998;2022-12-29T06:49:15;12.50;;;2.92;;
54384;SDS011;40284;52.878;5.998;2022-12-29T06:51:41;16.17;;;2.80;;
54384;SDS011;40284;52.878;5.998;2022-12-29T06:54:07;15.32;;;3.15;;
54384;SDS011;40284;52.878;5.998;2022-12-29T06:56:33;17.17;;;3.05;;
54384;SDS011;40284;52.878;5.998;2022-12-29T06:58:59;12.00;;;3.15;;
54384;SDS011;40284;52.878;5.998;2022-12-29T07:01:26;19.05;;;3.63;;
54384;SDS011;40284;52.878;5.998;2022-12-29T07:03:52;12.40;;;3.45;;
54384;SDS011;40284;52.878;5.998;2022-12-29T07:06:18;9.80;;;2.95;;
54384;SDS011;40284;52.878;5.998;2022-12-29T07:08:44;10.10;;;2.40;;
54384;SDS011;40284;52.878;5.998;2022-12-29T07:11:10;22.23;;;4.30;;
54384;SDS011;40284;52.878;5.998;2022-12-29T07:13:36;11.95;;;3.17;;
54384;SDS011;40284;52.878;5.998;2022-12-29T07:16:06;11.93;;;3.33;;
54384;SDS011;40284;52.878;5.998;2022-12-29T07:18:33;16.33;;;3.22;;
54384;SDS011;40284;52.878;5.998;2022-12-29T07:20:59;17.15;;;3.58;;
54384;SDS011;40284;52.878;5.998;2022-12-29T07:23:25;21.50;;;3.85;;
54384;SDS011;40284;52.878;5.998;2022-12-29T07:25:58;13.27;;;2.75;;
54384;SDS011;40284;52.878;5.998;2022-12-29T07:30:50;11.95;;;3.05;;
54384;SDS011;40284;52.878;5.998;2022-12-29T07:33:16;15.25;;;2.75;;
54384;SDS011;40284;52.878;5.998;2022-12-29T07:35:42;10.30;;;2.83;;
54384;SDS011;40284;52.878;5.998;2022-12-29T07:38:09;13.55;;;2.58;;
54384;SDS011;40284;52.878;5.998;2022-12-29T07:40:35;17.52;;;3.70;;
54384;SDS011;40284;52.878;5.998;2022-12-29T07:43:01;14.27;;;3.03;;
54384;SDS011;40284;52.878;5.998;2022-12-29T07:45:27;15.65;;;3.28;;
54384;SDS011;40284;52.878;5.998;2022-12-29T07:47:53;17.10;;;3.25;;
54384;SDS011;40284;52.878;5.998;2022-12-29T07:50:19;15.52;;;3.92;;
54384;SDS011;40284;52.878;5.998;2022-12-29T07:52:45;16.88;;;3.40;;
54384;SDS011;40284;52.878;5.998;2022-12-29T07:55:13;16.67;;;3.13;;
54384;SDS011;40284;52.878;5.998;2022-12-29T07:57:39;18.83;;;3.13;;
54384;SDS011;40284;52.878;5.998;2022-12-29T08:00:05;15.00;;;3.95;;
54384;SDS011;40284;52.878;5.998;2022-12-29T08:02:32;11.88;;;3.88;;
54384;SDS011;40284;52.878;5.998;2022-12-29T08:04:58;15.63;;;2.95;;
54384;SDS011;40284;52.878;5.998;2022-12-29T08:07:24;19.75;;;4.00;;
54384;SDS011;40284;52.878;5.998;2022-12-29T08:09:50;14.00;;;3.42;;
54384;SDS011;40284;52.878;5.998;2022-12-29T08:12:16;16.30;;;3.88;;
54384;SDS011;40284;52.878;5.998;2022-12-29T08:14:42;18.65;;;3.67;;
54384;SDS011;40284;52.878;5.998;2022-12-29T08:17:08;21.20;;;3.33;;
54384;SDS011;40284;52.878;5.998;2022-12-29T08:19:35;19.75;;;3.65;;
54384;SDS011;40284;52.878;5.998;2022-12-29T08:22:01;16.27;;;3.60;;
54384;SDS011;40284;52.878;5.998;2022-12-29T08:24:27;17.90;;;4.05;;
54384;SDS011;40284;52.878;5.998;2022-12-29T08:26:54;26.33;;;5.53;;
54384;SDS011;40284;52.878;5.998;2022-12-29T08:29:20;21.02;;;4.15;;
54384;SDS011;40284;52.878;5.998;2022-12-29T08:31:46;17.75;;;3.75;;
54384;SDS011;40284;52.878;5.998;2022-12-29T08:34:12;16.00;;;3.47;;
54384;SDS011;40284;52.878;5.998;2022-12-29T08:36:38;23.58;;;4.47;;
54384;SDS011;40284;52.878;5.998;2022-12-29T08:39:04;24.08;;;5.90;;
54384;SDS011;40284;52.878;5.998;2022-12-29T08:41:31;22.35;;;4.47;;
54384;SDS011;40284;52.878;5.998;2022-12-29T08:43:57;20.40;;;4.32;;
54384;SDS011;40284;52.878;5.998;2022-12-29T08:46:23;26.20;;;5.15;;
54384;SDS011;40284;52.878;5.998;2022-12-29T08:48:49;18.65;;;3.95;;
54384;SDS011;40284;52.878;5.998;2022-12-29T08:51:15;24.10;;;4.40;;
54384;SDS011;40284;52.878;5.998;2022-12-29T08:53:42;15.98;;;3.15;;
54384;SDS011;40284;52.878;5.998;2022-12-29T08:56:08;14.90;;;3.30;;
54384;SDS011;40284;52.878;5.998;2022-12-29T08:58:35;18.75;;;4.65;;
54384;SDS011;40284;52.878;5.998;2022-12-29T09:01:01;18.30;;;3.63;;
54384;SDS011;40284;52.878;5.998;2022-12-29T09:03:27;20.08;;;3.88;;
54384;SDS011;40284;52.878;5.998;2022-12-29T09:05:53;20.10;;;4.07;;
54384;SDS011;40284;52.878;5.998;2022-12-29T09:08:20;18.38;;;3.00;;
54384;SDS011;40284;52.878;5.998;2022-12-29T09:10:46;12.48;;;3.00;;
54384;SDS011;40284;52.878;5.998;2022-12-29T09:13:12;18.40;;;4.05;;
54384;SDS011;40284;52.878;5.998;2022-12-29T09:15:38;13.85;;;3.53;;
54384;SDS011;40284;52.878;5.998;2022-12-29T09:18:05;23.73;;;4.97;;
54384;SDS011;40284;52.878;5.998;2022-12-29T09:20:31;15.48;;;3.67;;
54384;SDS011;40284;52.878;5.998;2022-12-29T09:22:57;19.42;;;3.45;;
54384;SDS011;40284;52.878;5.998;2022-12-29T09:25:24;14.95;;;3.35;;
54384;SDS011;40284;52.878;5.998;2022-12-29T09:27:50;12.88;;;3.28;;
54384;SDS011;40284;52.878;5.998;2022-12-29T09:30:19;19.58;;;3.40;;
54384;SDS011;40284;52.878;5.998;2022-12-29T09:32:45;19.17;;;3.97;;
54384;SDS011;40284;52.878;5.998;2022-12-29T09:35:11;14.10;;;3.10;;
54384;SDS011;40284;52.878;5.998;2022-12-29T09:37:38;15.65;;;3.58;;
54384;SDS011;40284;52.878;5.998;2022-12-29T09:40:04;14.95;;;3.45;;
54384;SDS011;40284;52.878;5.998;2022-12-29T09:45:11;14.05;;;3.55;;
54384;SDS011;40284;52.878;5.998;2022-12-29T09:47:41;17.27;;;4.17;;
54384;SDS011;40284;52.878;5.998;2022-12-29T09:50:27;14.07;;;3.05;;
54384;SDS011;40284;52.878;5.998;2022-12-29T09:55:33;18.85;;;4.30;;
54384;SDS011;40284;52.878;5.998;2022-12-29T09:58:21;21.63;;;5.25;;
54384;SDS011;40284;52.878;5.998;2022-12-29T10:00:50;20.77;;;4.20;;
54384;SDS011;40284;52.878;5.998;2022-12-29T10:03:19;17.95;;;5.30;;
54384;SDS011;40284;52.878;5.998;2022-12-29T10:13:22;15.38;;;3.17;;
54384;SDS011;40284;52.878;5.998;2022-12-29T10:21:02;15.52;;;2.90;;
54384;SDS011;40284;52.878;5.998;2022-12-29T10:23:42;18.08;;;3.10;;
54384;SDS011;40284;52.878;5.998;2022-12-29T10:26:12;26.48;;;3.45;;
54384;SDS011;40284;52.878;5.998;2022-12-29T10:28:47;11.77;;;2.72;;
54384;SDS011;40284;52.878;5.998;2022-12-29T10:31:16;17.83;;;3.30;;
54384;SDS011;40284;52.878;5.998;2022-12-29T10:33:45;13.57;;;3.53;;
54384;SDS011;40284;52.878;5.998;2022-12-29T10:36:13;16.65;;;2.88;;
54384;SDS011;40284;52.878;5.998;2022-12-29T10:38:44;13.95;;;3.63;;
54384;SDS011;40284;52.878;5.998;2022-12-29T10:41:16;19.80;;;3.22;;
54384;SDS011;40284;52.878;5.998;2022-12-29T10:43:44;24.08;;;3.95;;
54384;SDS011;40284;52.878;5.998;2022-12-29T10:46:18;16.08;;;3.55;;
54384;SDS011;40284;52.878;5.998;2022-12-29T10:48:46;11.55;;;2.92;;
54384;SDS011;40284;52.878;5.998;2022-12-29T10:51:22;12.77;;;3.35;;
54384;SDS011;40284;52.878;5.998;2022-12-29T10:54:33;17.45;;;3.70;;
54384;SDS011;40284;52.878;5.998;2022-12-29T10:56:40;15.00;;;3.80;;
54384;SDS011;40284;52.878;5.998;2022-12-29T11:02:06;21.63;;;3.83;;
54384;SDS011;40284;52.878;5.998;2022-12-29T11:07:02;21.65;;;4.90;;
54384;SDS011;40284;52.878;5.998;2022-12-29T11:09:29;18.80;;;3.65;;
54384;SDS011;40284;52.878;5.998;2022-12-29T11:11:57;24.23;;;5.43;;
54384;SDS011;40284;52.878;5.998;2022-12-29T11:14:27;27.55;;;5.30;;
54384;SDS011;40284;52.878;5.998;2022-12-29T11:16:58;22.88;;;4.47;;
54384;SDS011;40284;52.878;5.998;2022-12-29T11:19:28;27.05;;;5.25;;
54384;SDS011;40284;52.878;5.998;2022-12-29T11:21:56;21.42;;;4.32;;
54384;SDS011;40284;52.878;5.998;2022-12-29T11:24:37;24.55;;;4.28;;
54384;SDS011;40284;52.878;5.998;2022-12-29T11:27:13;25.98;;;4.70;;
54384;SDS011;40284;52.878;5.998;2022-12-29T11:29:40;25.65;;;6.13;;
54384;SDS011;40284;52.878;5.998;2022-12-29T11:32:26;21.80;;;4.65;;
54384;SDS011;40284;52.878;5.998;2022-12-29T11:34:52;24.75;;;5.03;;
54384;SDS011;40284;52.878;5.998;2022-12-29T11:37:40;25.70;;;5.53;;
54384;SDS011;40284;52.878;5.998;2022-12-29T11:42:37;35.72;;;7.03;;
54384;SDS011;40284;52.878;5.998;2022-12-29T11:45:05;32.45;;;6.13;;
54384;SDS011;40284;52.878;5.998;2022-12-29T11:47:32;29.83;;;4.88;;
54384;SDS011;40284;52.878;5.998;2022-12-29T11:49:59;23.23;;;4.85;;
54384;SDS011;40284;52.878;5.998;2022-12-29T11:52:26;30.38;;;4.70;;
54384;SDS011;40284;52.878;5.998;2022-12-29T11:54:54;26.88;;;4.85;;
54384;SDS011;40284;52.878;5.998;2022-12-29T11:57:21;38.47;;;6.38;;
54384;SDS011;40284;52.878;5.998;2022-12-29T12:04:46;25.60;;;5.10;;
54384;SDS011;40284;52.878;5.998;2022-12-29T12:10:19;24.65;;;4.55;;
54384;SDS011;40284;52.878;5.998;2022-12-29T12:12:52;21.58;;;4.28;;
54384;SDS011;40284;52.878;5.998;2022-12-29T12:15:24;16.63;;;3.88;;
54384;SDS011;40284;52.878;5.998;2022-12-29T12:18:02;25.00;;;4.30;;
54384;SDS011;40284;52.878;5.998;2022-12-29T12:25:37;20.05;;;4.35;;
54384;SDS011;40284;52.878;5.998;2022-12-29T12:30:40;21.27;;;4.15;;
54384;SDS011;40284;52.878;5.998;2022-12-29T12:33:22;20.55;;;4.28;;
54384;SDS011;40284;52.878;5.998;2022-12-29T12:38:46;23.88;;;3.63;;
54384;SDS011;40284;52.878;5.998;2022-12-29T12:43:44;16.63;;;4.40;;
54384;SDS011;40284;52.878;5.998;2022-12-29T12:57:16;22.25;;;3.30;;
54384;SDS011;40284;52.878;5.998;2022-12-29T13:02:26;18.52;;;3.83;;
54384;SDS011;40284;52.878;5.998;2022-12-29T13:15:22;16.40;;;2.83;;
54384;SDS011;40284;52.878;5.998;2022-12-29T13:21:00;12.20;;;2.22;;
54384;SDS011;40284;52.878;5.998;2022-12-29T13:36:39;20.67;;;4.47;;
54384;SDS011;40284;52.878;5.998;2022-12-29T13:41:35;20.88;;;4.03;;
54384;SDS011;40284;52.878;5.998;2022-12-29T13:44:03;18.25;;;3.42;;
54384;SDS011;40284;52.878;5.998;2022-12-29T13:46:33;11.05;;;3.15;;
54384;SDS011;40284;52.878;5.998;2022-12-29T13:49:05;20.02;;;3.53;;
54384;SDS011;40284;52.878;5.998;2022-12-29T13:51:32;18.35;;;3.35;;
54384;SDS011;40284;52.878;5.998;2022-12-29T13:56:37;18.35;;;4.75;;
54384;SDS011;40284;52.878;5.998;2022-12-29T13:59:10;14.57;;;3.85;;
54384;SDS011;40284;52.878;5.998;2022-12-29T14:01:39;19.27;;;4.35;;
54384;SDS011;40284;52.878;5.998;2022-12-29T14:04:09;28.27;;;3.47;;
54384;SDS011;40284;52.878;5.998;2022-12-29T14:06:36;19.45;;;3.40;;
54384;SDS011;40284;52.878;5.998;2022-12-29T14:09:06;17.88;;;3.97;;
54384;SDS011;40284;52.878;5.998;2022-12-29T14:11:33;19.42;;;3.90;;
54384;SDS011;40284;52.878;5.998;2022-12-29T14:14:10;14.27;;;2.50;;
54384;SDS011;40284;52.878;5.998;2022-12-29T14:16:37;16.25;;;2.78;;
54384;SDS011;40284;52.878;5.998;2022-12-29T14:19:11;16.55;;;3.35;;
54384;SDS011;40284;52.878;5.998;2022-12-29T14:21:38;18.45;;;3.60;;
54384;SDS011;40284;52.878;5.998;2022-12-29T14:26:49;13.23;;;3.03;;
54384;SDS011;40284;52.878;5.998;2022-12-29T14:29:16;13.70;;;3.58;;
54384;SDS011;40284;52.878;5.998;2022-12-29T14:31:59;11.75;;;2.72;;
54384;SDS011;40284;52.878;5.998;2022-12-29T14:34:29;16.73;;;3.55;;
54384;SDS011;40284;52.878;5.998;2022-12-29T14:42:04;12.57;;;2.42;;
54384;SDS011;40284;52.878;5.998;2022-12-29T14:44:31;15.25;;;3.15;;
54384;SDS011;40284;52.878;5.998;2022-12-29T14:46:59;14.80;;;3.45;;
54384;SDS011;40284;52.878;5.998;2022-12-29T14:49:30;15.07;;;2.55;;
54384;SDS011;40284;52.878;5.998;2022-12-29T14:54:53;16.55;;;3.22;;
54384;SDS011;40284;52.878;5.998;2022-12-29T14:59:45;15.52;;;2.92;;
54384;SDS011;40284;52.878;5.998;2022-12-29T15:02:14;14.25;;;3.35;;
54384;SDS011;40284;52.878;5.998;2022-12-29T15:04:41;16.80;;;2.90;;
54384;SDS011;40284;52.878;5.998;2022-12-29T15:07:09;22.42;;;3.88;;
54384;SDS011;40284;52.878;5.998;2022-12-29T15:09:42;13.90;;;2.80;;
54384;SDS011;40284;52.878;5.998;2022-12-29T15:14:56;11.18;;;2.33;;
54384;SDS011;40284;52.878;5.998;2022-12-29T15:19:52;18.42;;;3.08;;
54384;SDS011;40284;52.878;5.998;2022-12-29T15:22:18;11.60;;;3.00;;
54384;SDS011;40284;52.878;5.998;2022-12-29T15:24:44;22.42;;;3.22;;
54384;SDS011;40284;52.878;5.998;2022-12-29T15:27:13;10.60;;;2.30;;
54384;SDS011;40284;52.878;5.998;2022-12-29T15:29:40;10.27;;;3.08;;
54384;SDS011;40284;52.878;5.998;2022-12-29T15:32:14;13.75;;;3.38;;
54384;SDS011;40284;52.878;5.998;2022-12-29T15:34:42;14.88;;;3.13;;
54384;SDS011;40284;52.878;5.998;2022-12-29T15:37:08;14.75;;;2.88;;
54384;SDS011;40284;52.878;5.998;2022-12-29T15:39:35;14.45;;;3.70;;
54384;SDS011;40284;52.878;5.998;2022-12-29T15:44:45;12.60;;;2.72;;
54384;SDS011;40284;52.878;5.998;2022-12-29T15:49:38;17.05;;;3.08;;
54384;SDS011;40284;52.878;5.998;2022-12-29T15:52:08;14.10;;;3.20;;
54384;SDS011;40284;52.878;5.998;2022-12-29T15:54:34;12.73;;;3.10;;
54384;SDS011;40284;52.878;5.998;2022-12-29T15:57:02;14.90;;;2.90;;
54384;SDS011;40284;52.878;5.998;2022-12-29T15:59:29;11.25;;;2.63;;
54384;SDS011;40284;52.878;5.998;2022-12-29T16:01:56;17.50;;;3.83;;
54384;SDS011;40284;52.878;5.998;2022-12-29T16:04:22;17.23;;;5.40;;
54384;SDS011;40284;52.878;5.998;2022-12-29T16:07:02;19.70;;;5.40;;
54384;SDS011;40284;52.878;5.998;2022-12-29T16:09:53;24.80;;;5.25;;
54384;SDS011;40284;52.878;5.998;2022-12-29T16:12:16;16.92;;;5.25;;
54384;SDS011;40284;52.878;5.998;2022-12-29T16:14:44;16.02;;;3.58;;
54384;SDS011;40284;52.878;5.998;2022-12-29T16:17:12;18.25;;;2.92;;
54384;SDS011;40284;52.878;5.998;2022-12-29T16:19:41;9.73;;;2.80;;
54384;SDS011;40284;52.878;5.998;2022-12-29T16:22:11;9.18;;;2.72;;
54384;SDS011;40284;52.878;5.998;2022-12-29T16:24:38;6.93;;;1.73;;
54384;SDS011;40284;52.878;5.998;2022-12-29T16:27:09;10.05;;;2.80;;
54384;SDS011;40284;52.878;5.998;2022-12-29T16:29:38;10.60;;;1.42;;
54384;SDS011;40284;52.878;5.998;2022-12-29T16:32:22;7.07;;;1.85;;
54384;SDS011;40284;52.878;5.998;2022-12-29T16:34:49;6.05;;;1.30;;
54384;SDS011;40284;52.878;5.998;2022-12-29T16:39:48;5.55;;;1.55;;
54384;SDS011;40284;52.878;5.998;2022-12-29T16:45:20;8.90;;;2.20;;
54384;SDS011;40284;52.878;5.998;2022-12-29T16:50:34;16.33;;;6.45;;
54384;SDS011;40284;52.878;5.998;2022-12-29T16:53:01;10.77;;;3.55;;
54384;SDS011;40284;52.878;5.998;2022-12-29T16:55:28;9.57;;;2.15;;
54384;SDS011;40284;52.878;5.998;2022-12-29T16:57:54;11.15;;;2.25;;
54384;SDS011;40284;52.878;5.998;2022-12-29T17:00:25;12.63;;;3.78;;
54384;SDS011;40284;52.878;5.998;2022-12-29T17:02:52;12.07;;;3.28;;
54384;SDS011;40284;52.878;5.998;2022-12-29T17:05:19;11.25;;;3.30;;
54384;SDS011;40284;52.878;5.998;2022-12-29T17:07:45;16.52;;;3.92;;
54384;SDS011;40284;52.878;5.998;2022-12-29T17:10:11;16.67;;;3.97;;
54384;SDS011;40284;52.878;5.998;2022-12-29T17:12:42;16.20;;;3.42;;
54384;SDS011;40284;52.878;5.998;2022-12-29T17:17:47;23.20;;;4.53;;
54384;SDS011;40284;52.878;5.998;2022-12-29T17:22:40;16.10;;;3.17;;
54384;SDS011;40284;52.878;5.998;2022-12-29T17:25:06;20.80;;;3.78;;